MGGT/GUA METAR and TAF weather

Enter ICAO airport designator
Station Type Date Time Source
MGGT METAR 2018/12/10 02:00 UTC NOAA

MGGT 100200Z 36016KT 9999 SCT016 18/13 Q1027 A3033


Station Type Date Time Source
MGGT Decoded METAR 2018/12/10 02:00 UTC NOAA

Guatemala Aeropuertola Aurora , Guatemala (MGGT) 14-35N 090-31W 1489M
Dec 09, 2018 - 09:00 PM EST / 2018.12.10 0200 UTC
Wind: from the N (360 degrees) at 18 MPH (16 KT):0
Visibility: greater than 7 mile(s):0
Sky conditions: partly cloudy
Temperature: 64 F (18 C)
Dew Point: 55 F (13 C)
Relative Humidity: 72%
Pressure (altimeter): 30.33 in. Hg (1027 hPa)
ob: MGGT 100200Z 36016KT 9999 SCT016 18/13 Q1027 A3033
cycle: 2

Station Type Date Time Source
MGGT TAF 2018/12/09 18:58 UTC NOAA

TAF MGGT 091700Z 0918/1018 36020KT 9999 FEW020 TX25/0920Z TN13/1012Z
TEMPO 0920/0924 SCT020
BECMG 1002/1004 SCT016
BECMG 1016/1018 36020G30KT FEW018


Example: see airport list